Nacc Star — 9HA2073 — position and weather

sailwx.info

Track history (hours):
 
Tides and Currents Weather Stations Pressure Air Temp Water Temp Dewpoint Dewpoint Depression Visibility Wind Speed Wind Dir Waves Ship Positions

Nacc Star

Last reported at 2018-Jun-23 23:30 UTC. Time now 2018-Jun-23 23:39 UTC.
Position N 45°22' E 012°24'.

; draft 7.3 m.

Type: Cargo ship. MMSI: 249919000.

Date/timePositionNaut miles runAvg speedWind from/ knotsBaromVisibWave heightAir tempDewpointWater temp
2018-Jun-23 23:30N 45°22' E 012°24'0 0.0
2018-Jun-23 22:57N 45°22' E 012°24'0 0.0
2018-Jun-23 22:30N 45°22' E 012°24'0 0.0
2018-Jun-23 22:00N 45°22' E 012°24'0 0.0
2018-Jun-23 21:30N 45°22' E 012°24'0 0.0
2018-Jun-23 20:57N 45°22' E 012°24'0 0.1
2018-Jun-23 20:30N 45°22' E 012°24'0 0.1
2018-Jun-23 19:57N 45°22' E 012°24'1 1.5
2018-Jun-23 19:30N 45°21' E 012°24'5 9.4
2018-Jun-23 19:00N 45°18' E 012°29'510.1
2018-Jun-23 18:29N 45°15' E 012°35'510.3
2018-Jun-23 17:59N 45°11' E 012°40'4 9.1
2018-Jun-23 17:30N 45°07' E 012°41'510.0
2018-Jun-23 17:00N 45°02' E 012°40'  
2018-Jun-20 22:31N 37°53' E 015°44'110.0
2018-Jun-20 22:28N 37°53' E 015°43'5 9.8
2018-Jun-20 22:00N 37°56' E 015°39'5 9.8
2018-Jun-20 21:30N 37°60' E 015°35'5 9.9
2018-Jun-20 20:58N 38°05' E 015°34'611.7
2018-Jun-20 20:30N 38°10' E 015°36'510.3
2018-Jun-20 19:59N 38°15' E 015°38'4 8.3
2018-Jun-20 19:30N 38°19' E 015°39'510.9
2018-Jun-20 19:00N 38°23' E 015°35'511.0
2018-Jun-20 18:30N 38°27' E 015°30'610.7
2018-Jun-20 17:59N 38°31' E 015°25'510.4
2018-Jun-20 17:30N 38°35' E 015°21'1010.1
2018-Jun-20 16:30N 38°43' E 015°12'8810.3
2018-Jun-20 08:00N 39°49' E 013°58'1210.4
2018-Jun-20 06:49N 39°58' E 013°47'1010.0
2018-Jun-20 05:47N 40°05' E 013°38'4 9.9
2018-Jun-20 05:20N 40°09' E 013°34'3 9.9
2018-Jun-20 05:00N 40°11' E 013°31'5 9.9
2018-Jun-20 04:30N 40°15' E 013°27'1110.0
2018-Jun-20 03:24N 40°23' E 013°17'610.0
2018-Jun-20 02:50N 40°28' E 013°12'410.0
2018-Jun-20 02:25N 40°31' E 013°09'11 9.9
2018-Jun-20 01:16N 40°39' E 012°59'  
Track history (hours):
 
Tides and Currents Weather Stations Pressure Air Temp Water Temp Dewpoint Dewpoint Depression Visibility Wind Speed Wind Dir Waves Ship Positions

Nacc Star

Last reported at 2018-Jun-23 23:30 UTC. Time now 2018-Jun-23 23:39 UTC.
Position N 45°22' E 012°24'.

; draft 7.3 m.

Type: Cargo ship. MMSI: 249919000.

Date/timePositionNaut miles runAvg speedWind from/ knotsBaromVisibWave heightAir tempDewpointWater temp
2018-Jun-23 23:30N 45°22' E 012°24'0 0.0
2018-Jun-23 22:57N 45°22' E 012°24'0 0.0
2018-Jun-23 22:30N 45°22' E 012°24'0 0.0
2018-Jun-23 22:00N 45°22' E 012°24'0 0.0
2018-Jun-23 21:30N 45°22' E 012°24'0 0.0
2018-Jun-23 20:57N 45°22' E 012°24'0 0.1
2018-Jun-23 20:30N 45°22' E 012°24'0 0.1
2018-Jun-23 19:57N 45°22' E 012°24'1 1.5
2018-Jun-23 19:30N 45°21' E 012°24'5 9.4
2018-Jun-23 19:00N 45°18' E 012°29'510.1
2018-Jun-23 18:29N 45°15' E 012°35'510.3
2018-Jun-23 17:59N 45°11' E 012°40'4 9.1
2018-Jun-23 17:30N 45°07' E 012°41'510.0
2018-Jun-23 17:00N 45°02' E 012°40'  
2018-Jun-20 22:31N 37°53' E 015°44'110.0
2018-Jun-20 22:28N 37°53' E 015°43'5 9.8
2018-Jun-20 22:00N 37°56' E 015°39'5 9.8
2018-Jun-20 21:30N 37°60' E 015°35'5 9.9
2018-Jun-20 20:58N 38°05' E 015°34'611.7
2018-Jun-20 20:30N 38°10' E 015°36'510.3
2018-Jun-20 19:59N 38°15' E 015°38'4 8.3
2018-Jun-20 19:30N 38°19' E 015°39'510.9
2018-Jun-20 19:00N 38°23' E 015°35'511.0
2018-Jun-20 18:30N 38°27' E 015°30'610.7
2018-Jun-20 17:59N 38°31' E 015°25'510.4
2018-Jun-20 17:30N 38°35' E 015°21'1010.1
2018-Jun-20 16:30N 38°43' E 015°12'8810.3
2018-Jun-20 08:00N 39°49' E 013°58'1210.4
2018-Jun-20 06:49N 39°58' E 013°47'1010.0
2018-Jun-20 05:47N 40°05' E 013°38'4 9.9
2018-Jun-20 05:20N 40°09' E 013°34'3 9.9
2018-Jun-20 05:00N 40°11' E 013°31'5 9.9
2018-Jun-20 04:30N 40°15' E 013°27'1110.0
2018-Jun-20 03:24N 40°23' E 013°17'610.0
2018-Jun-20 02:50N 40°28' E 013°12'410.0
2018-Jun-20 02:25N 40°31' E 013°09'11 9.9
2018-Jun-20 01:16N 40°39' E 012°59'  

Dump ship's entire track history